createdAt,value
2022-09-06T00:01:59.041Z,101396.25
2022-09-06T00:04:39.400Z,101393.84
2022-09-06T00:07:26.023Z,101395.66
2022-09-06T00:10:12.981Z,101395.16
2022-09-06T00:13:00.012Z,101393.88
2022-09-06T00:15:40.805Z,101399.50
2022-09-06T00:18:28.174Z,101396.03
2022-09-06T00:21:23.951Z,101393.44
2022-09-06T00:24:11.034Z,101393.66
2022-09-06T00:26:51.386Z,101385.47
2022-09-06T00:29:37.997Z,101391.03
2022-09-06T00:32:24.970Z,101392.81
2022-09-06T00:35:12.981Z,101383.66
2022-09-06T00:38:01.335Z,101388.72
2022-09-06T00:40:48.966Z,101393.00
2022-09-06T00:43:35.979Z,101392.03
2022-09-06T00:46:28.072Z,101391.38
2022-09-06T00:49:19.959Z,101388.13
2022-09-06T00:52:16.965Z,101387.16
2022-09-06T00:54:57.925Z,101389.81
2022-09-06T00:57:44.969Z,101387.66
2022-09-06T01:00:25.373Z,101392.91
2022-09-06T01:03:11.985Z,101393.41
2022-09-06T01:06:17.167Z,101395.91
2022-09-06T01:09:19.954Z,101395.91
2022-09-06T01:12:24.911Z,101407.19
2022-09-06T01:15:30.014Z,101404.25
2022-09-06T01:18:34.952Z,101398.56
2022-09-06T01:21:24.904Z,101396.59
2022-09-06T01:24:20.940Z,101402.81
2022-09-06T01:27:10.918Z,101395.63
2022-09-06T01:30:05.844Z,101395.94
2022-09-06T01:33:03.924Z,101401.03
2022-09-06T01:35:46.446Z,101402.50
2022-09-06T01:38:32.896Z,101403.84
2022-09-06T01:41:13.349Z,101399.28
2022-09-06T01:44:03.906Z,101405.66
2022-09-06T01:47:32.895Z,101407.47
2022-09-06T01:50:25.034Z,101390.94
2022-09-06T01:53:29.012Z,101388.03
2022-09-06T01:56:14.993Z,101384.25
2022-09-06T01:59:23.854Z,101388.16
2022-09-06T02:02:20.974Z,101384.25
2022-09-06T02:05:30.893Z,101376.06
2022-09-06T02:08:19.993Z,101383.59
2022-09-06T02:11:12.846Z,101379.19
2022-09-06T02:14:03.963Z,101382.28
2022-09-06T02:16:54.967Z,101372.31
2022-09-06T02:19:43.478Z,101370.53
2022-09-06T02:22:33.858Z,101374.13
2022-09-06T02:25:23.841Z,101370.53
2022-09-06T02:28:12.829Z,101364.50
2022-09-06T02:31:03.986Z,101361.22
2022-09-06T02:33:52.827Z,101369.91
2022-09-06T02:36:39.823Z,101367.59
2022-09-06T02:39:26.849Z,101353.56
2022-09-06T02:42:14.842Z,101358.28
2022-09-06T02:45:01.819Z,101357.16
2022-09-06T02:47:42.000Z,101358.97
2022-09-06T02:50:28.836Z,101362.41
2022-09-06T02:53:27.836Z,101357.97
2022-09-06T02:56:08.752Z,101353.41
2022-09-06T02:58:56.793Z,101363.38
2022-09-06T03:01:43.902Z,101360.59
2022-09-06T03:04:30.797Z,101353.41
2022-09-06T03:26:14.632Z,101365.44
2022-09-06T03:28:54.993Z,101358.47
2022-09-06T03:31:41.644Z,101366.00
2022-09-06T03:34:21.988Z,101356.69
2022-09-06T03:37:08.619Z,101362.09
2022-09-06T03:39:49.061Z,101357.31
2022-09-06T03:42:35.638Z,101367.63
2022-09-06T03:45:16.033Z,101362.56
2022-09-06T03:48:02.606Z,101363.84
2022-09-06T03:50:51.009Z,101364.38
2022-09-06T03:53:38.581Z,101366.31
2022-09-06T03:56:19.113Z,101367.97
2022-09-06T03:59:05.566Z,101363.38
2022-09-06T04:01:45.967Z,101363.84
2022-09-06T04:04:32.591Z,101375.13
2022-09-06T04:07:19.607Z,101382.81
2022-09-06T04:10:06.560Z,101378.41
2022-09-06T04:12:53.683Z,101374.94
2022-09-06T04:15:33.583Z,101379.84
2022-09-06T04:18:14.762Z,101381.81
2022-09-06T04:21:03.551Z,101369.84
2022-09-06T04:23:57.540Z,101374.28
2022-09-06T04:26:44.598Z,101378.25
2022-09-06T04:29:31.556Z,101368.47
2022-09-06T04:32:12.037Z,101371.44
2022-09-06T04:34:58.534Z,101373.22
2022-09-06T04:37:39.046Z,101373.47
2022-09-06T04:40:25.550Z,101378.25
2022-09-06T04:43:05.933Z,101372.34
2022-09-06T04:45:52.577Z,101370.69
2022-09-06T04:48:39.524Z,101377.47
2022-09-06T04:51:19.694Z,101381.63
2022-09-06T04:54:06.553Z,101378.81
2022-09-06T04:56:46.634Z,101376.66
2022-09-06T04:59:33.530Z,101382.78
2022-09-06T05:02:27.597Z,101376.97
2022-09-06T05:05:07.517Z,101369.28
2022-09-06T05:07:48.045Z,101365.06
2022-09-06T05:10:35.479Z,101364.16
2022-09-06T05:13:22.528Z,101371.56
2022-09-06T05:16:02.706Z,101373.47
2022-09-06T05:18:49.501Z,101375.63
2022-09-06T05:21:29.602Z,101381.22
2022-09-06T05:24:16.454Z,101387.38
2022-09-06T05:27:03.494Z,101383.19
2022-09-06T05:29:50.477Z,101381.75
2022-09-06T05:32:30.627Z,101384.28
2022-09-06T05:35:17.557Z,101380.00
2022-09-06T05:37:57.552Z,101388.22
2022-09-06T05:40:44.517Z,101382.13
2022-09-06T05:43:31.464Z,101388.91
2022-09-06T05:46:18.581Z,101374.66
2022-09-06T05:49:14.457Z,101373.59
2022-09-06T05:52:01.464Z,101378.91
2022-09-06T05:54:41.614Z,101384.53
2022-09-06T05:57:28.441Z,101372.25
2022-09-06T06:00:15.440Z,101383.59
2022-09-06T06:03:02.444Z,101375.81
2022-09-06T06:05:42.554Z,101383.47
2022-09-06T06:08:29.460Z,101393.38
2022-09-06T06:11:09.570Z,101386.09
2022-09-06T06:13:57.445Z,101374.44
2022-09-06T06:16:44.473Z,101384.28
2022-09-06T06:19:26.673Z,101378.56
2022-09-06T06:22:13.422Z,101385.56
2022-09-06T06:25:07.424Z,101393.19
2022-09-06T06:27:54.399Z,101390.31
2022-09-06T06:30:41.412Z,101386.25
2022-09-06T06:33:28.408Z,101381.44
2022-09-06T06:36:11.518Z,101379.69
2022-09-06T06:39:01.444Z,101381.44
2022-09-06T06:41:41.590Z,101385.00
2022-09-06T06:44:59.441Z,101384.84
2022-09-06T06:47:39.510Z,101379.81
2022-09-06T06:50:26.443Z,101390.53
2022-09-06T06:53:06.477Z,101397.13
2022-09-06T06:55:55.407Z,101389.34
2022-09-06T06:58:37.486Z,101390.56
2022-09-06T07:01:27.602Z,101391.56
2022-09-06T07:04:09.249Z,101396.47
2022-09-06T07:13:17.365Z,101391.50
2022-09-06T07:15:57.582Z,101391.41
2022-09-06T07:18:48.405Z,101388.03
2022-09-06T07:21:37.719Z,101398.44
2022-09-06T07:24:25.393Z,101401.28
2022-09-06T07:30:13.385Z,101405.25
2022-09-06T07:33:00.390Z,101403.06
2022-09-06T07:35:41.754Z,101405.28
2022-09-06T07:38:28.354Z,101407.00
2022-09-06T07:41:17.332Z,101404.50
2022-09-06T07:44:01.496Z,101404.78
2022-09-06T07:46:48.408Z,101403.72
2022-09-06T07:49:35.377Z,101410.47
2022-09-06T07:55:22.329Z,101413.78
2022-09-06T07:58:09.351Z,101417.47
2022-09-06T08:00:49.454Z,101413.81
2022-09-06T08:03:37.315Z,101415.81
2022-09-06T08:06:24.297Z,101423.16
2022-09-06T08:09:15.366Z,101417.97
2022-09-06T08:12:02.325Z,101425.44
2022-09-06T08:14:49.398Z,101411.09
2022-09-06T08:17:29.429Z,101414.75
2022-09-06T08:20:16.299Z,101414.53
2022-09-06T08:23:03.330Z,101410.91
2022-09-06T08:25:57.310Z,101415.16
2022-09-06T08:28:37.900Z,101402.97
2022-09-06T08:31:27.387Z,101411.59
2022-09-06T08:34:14.350Z,101413.59
2022-09-06T08:36:54.398Z,101406.19
2022-09-06T08:39:41.381Z,101408.56
2022-09-06T08:42:28.291Z,101397.91
2022-09-06T08:45:12.624Z,101401.03
2022-09-06T08:47:59.310Z,101401.75
2022-09-06T08:50:46.396Z,101406.44
2022-09-06T08:53:33.261Z,101407.53
2022-09-06T08:56:25.413Z,101395.97
2022-09-06T08:59:15.276Z,101403.22
2022-09-06T09:02:15.847Z,101398.88
2022-09-06T09:05:16.290Z,101403.84
2022-09-06T09:08:35.296Z,101396.50
2022-09-06T09:11:29.939Z,101386.94
2022-09-06T09:14:22.283Z,101382.59
2022-09-06T09:17:09.366Z,101375.66
2022-09-06T09:19:56.253Z,101380.03
2022-09-06T09:22:36.453Z,101379.81
2022-09-06T09:25:28.251Z,101372.69
2022-09-06T09:28:16.259Z,101363.19
2022-09-06T09:30:57.333Z,101364.41
2022-09-06T09:33:49.257Z,101370.25
2022-09-06T09:36:36.215Z,101375.13
2022-09-06T09:39:25.316Z,101353.00
2022-09-06T09:42:14.242Z,101363.78
2022-09-06T09:44:54.318Z,101355.56
2022-09-06T09:47:41.234Z,101367.22
2022-09-06T09:50:44.213Z,101364.59
2022-09-06T09:53:26.156Z,101361.28
2022-09-06T09:56:13.188Z,101357.50
2022-09-06T09:59:03.260Z,101345.78
2022-09-06T10:01:52.205Z,101360.75
2022-09-06T10:04:43.729Z,101366.47
2022-09-06T10:07:38.198Z,101348.59
2022-09-06T10:10:26.016Z,101355.53
2022-09-06T10:13:41.209Z,101354.06
2022-09-06T10:16:41.863Z,101350.63
2022-09-06T10:19:58.228Z,101343.97
2022-09-06T10:22:54.564Z,101343.09
2022-09-06T10:26:01.190Z,101333.84
2022-09-06T10:28:42.199Z,101327.16
2022-09-06T10:32:00.177Z,101338.84
2022-09-06T10:35:04.208Z,101330.47
2022-09-06T10:38:39.207Z,101323.72
2022-09-06T10:41:40.185Z,101324.19
2022-09-06T10:45:05.306Z,101328.91
2022-09-06T10:48:28.410Z,101307.22
2022-09-06T10:51:21.255Z,101314.38
2022-09-06T10:54:13.188Z,101301.16
2022-09-06T11:00:54.146Z,101310.53
2022-09-06T11:06:43.167Z,101311.81
2022-09-06T11:09:37.139Z,101314.09
2022-09-06T11:12:37.157Z,101303.94
2022-09-06T11:15:20.332Z,101305.63
2022-09-06T11:18:25.196Z,101305.31
2022-09-06T11:21:30.231Z,101311.53
2022-09-06T11:24:59.146Z,101299.06
2022-09-06T11:27:49.340Z,101298.94
2022-09-06T11:30:32.147Z,101297.28
2022-09-06T11:33:35.157Z,101298.91
2022-09-06T11:36:33.256Z,101295.63
2022-09-06T11:42:55.144Z,101304.06
2022-09-06T11:45:58.174Z,101306.06
2022-09-06T11:48:50.248Z,101292.28
2022-09-06T11:51:41.108Z,101297.16
2022-09-06T11:54:30.205Z,101290.63
2022-09-06T11:57:15.942Z,101292.41
2022-09-06T12:00:11.114Z,101300.69
2022-09-06T12:02:52.919Z,101298.97
2022-09-06T12:05:45.105Z,101283.78
2022-09-06T12:08:34.335Z,101274.56
2022-09-06T12:11:48.126Z,101276.63
2022-09-06T12:14:43.050Z,101270.91
2022-09-06T12:17:33.076Z,101280.31
2022-09-06T12:20:48.184Z,101277.81
2022-09-06T12:23:50.099Z,101286.16
2022-09-06T12:26:54.485Z,101282.69
2022-09-06T12:29:43.089Z,101273.25
2022-09-06T12:32:28.595Z,101261.50
2022-09-06T12:38:24.519Z,101265.03
2022-09-06T12:41:04.282Z,101276.06
2022-09-06T12:43:51.063Z,101267.78
2022-09-06T12:46:39.165Z,101272.94
2022-09-06T12:49:28.056Z,101274.31
2022-09-06T12:52:29.076Z,101269.59
2022-09-06T12:55:44.094Z,101270.16
2022-09-06T12:58:34.229Z,101266.56
2022-09-06T13:01:33.156Z,101258.25
2022-09-06T13:04:36.051Z,101260.63
2022-09-06T13:07:18.918Z,101256.53
2022-09-06T13:10:10.070Z,101246.34
2022-09-06T13:13:00.004Z,101257.31
2022-09-06T13:15:47.137Z,101256.88
2022-09-06T13:18:45.053Z,101268.03
2022-09-06T13:21:39.162Z,101252.38
2022-09-06T13:24:54.020Z,101247.59
2022-09-06T13:27:52.024Z,101251.59
2022-09-06T13:30:49.843Z,101261.06
2022-09-06T13:33:32.250Z,101257.88
2022-09-06T13:36:19.039Z,101259.16
2022-09-06T13:39:00.193Z,101254.38
2022-09-06T13:41:48.010Z,101248.53
2022-09-06T13:44:36.170Z,101254.25
2022-09-06T13:47:22.995Z,101243.59
2022-09-06T13:50:03.219Z,101257.22
2022-09-06T13:52:49.982Z,101245.06
2022-09-06T13:55:42.020Z,101244.09
2022-09-06T13:58:22.445Z,101242.78
2022-09-06T14:01:09.082Z,101235.41
2022-09-06T14:03:56.980Z,101245.34
2022-09-06T14:06:37.245Z,101236.47
2022-09-06T14:09:23.973Z,101235.81
2022-09-06T14:12:44.969Z,101233.69
2022-09-06T14:15:25.735Z,101236.75
2022-09-06T14:18:14.576Z,101241.59
2022-09-06T14:21:02.101Z,101239.59
2022-09-06T14:23:41.963Z,101235.75
2022-09-06T14:26:30.092Z,101235.28
2022-09-06T14:29:09.972Z,101234.53
2022-09-06T14:31:56.965Z,101235.41
2022-09-06T14:34:37.064Z,101228.94
2022-09-06T14:37:23.911Z,101227.94
2022-09-06T14:40:39.948Z,101229.56
2022-09-06T14:43:20.390Z,101222.69
2022-09-06T14:46:06.997Z,101216.59
2022-09-06T14:48:53.951Z,101225.34
2022-09-06T14:51:34.298Z,101216.56
2022-09-06T14:54:24.177Z,101223.06
2022-09-06T14:57:07.038Z,101229.25
2022-09-06T14:59:53.921Z,101235.28
2022-09-06T15:02:34.194Z,101232.63
2022-09-06T15:05:20.907Z,101233.84
2022-09-06T15:08:01.081Z,101225.47
2022-09-06T15:10:47.887Z,101219.03
2022-09-06T15:27:54.785Z,101219.88
2022-09-06T15:30:41.841Z,101221.94
2022-09-06T15:33:21.919Z,101223.66
2022-09-06T15:36:12.799Z,101228.50
2022-09-06T15:38:56.403Z,101223.66
2022-09-06T15:41:45.769Z,101227.00
2022-09-06T15:44:26.926Z,101231.41
2022-09-06T15:47:13.773Z,101223.34
2022-09-06T15:49:53.949Z,101233.25
2022-09-06T15:52:40.746Z,101237.25
2022-09-06T15:55:41.621Z,101227.91
2022-09-06T15:58:21.754Z,101229.78
2022-09-06T16:01:08.762Z,101232.59
2022-09-06T16:04:01.733Z,101226.44
2022-09-06T16:06:42.703Z,101223.63
2022-09-06T16:09:29.708Z,101231.56
2022-09-06T16:12:16.861Z,101217.09
2022-09-06T16:14:57.044Z,101218.25
2022-09-06T16:17:43.764Z,101214.50
2022-09-06T16:20:23.830Z,101206.91
2022-09-06T16:23:10.718Z,101205.09
2022-09-06T16:25:58.919Z,101209.91
2022-09-06T16:28:45.714Z,101206.28
2022-09-06T16:31:27.056Z,101205.78
2022-09-06T16:34:14.687Z,101206.47
2022-09-06T16:37:02.725Z,101213.31
2022-09-06T16:39:50.735Z,101206.00
2022-09-06T16:42:37.684Z,101203.66
2022-09-06T16:45:24.686Z,101219.09
2022-09-06T16:48:04.835Z,101200.22
2022-09-06T16:50:51.699Z,101227.09
2022-09-06T16:53:31.813Z,101211.03
2022-09-06T16:56:21.655Z,101222.38
2022-09-06T16:59:11.694Z,101211.16
2022-09-06T17:01:58.815Z,101211.63
2022-09-06T17:04:38.759Z,101210.75
2022-09-06T17:07:25.646Z,101212.31
2022-09-06T17:10:13.693Z,101215.66
2022-09-06T17:12:54.155Z,101208.88
2022-09-06T17:16:00.680Z,101213.25
2022-09-06T17:18:47.618Z,101213.91
2022-09-06T17:21:36.669Z,101221.19
2022-09-06T17:24:23.849Z,101218.78
2022-09-06T17:27:03.681Z,101223.56
2022-09-06T17:29:44.058Z,101227.25
2022-09-06T17:32:30.650Z,101234.47
2022-09-06T17:35:17.671Z,101246.41
2022-09-06T17:37:57.794Z,101240.00
2022-09-06T17:40:44.661Z,101247.38
2022-09-06T17:43:31.619Z,101251.66
2022-09-06T17:46:18.716Z,101247.22
2022-09-06T17:48:58.782Z,101255.22
2022-09-06T17:51:45.613Z,101251.44
2022-09-06T17:54:32.637Z,101259.06
2022-09-06T17:57:13.043Z,101252.72
2022-09-06T17:59:59.648Z,101251.88
2022-09-06T18:02:40.173Z,101264.28
2022-09-06T18:05:26.707Z,101267.88
2022-09-06T18:08:14.626Z,101264.66
2022-09-06T18:11:01.621Z,101255.06
2022-09-06T18:13:43.058Z,101261.69
2022-09-06T18:16:29.639Z,101256.09
2022-09-06T18:19:10.028Z,101251.31
2022-09-06T18:21:56.582Z,101254.16
2022-09-06T18:24:43.584Z,101264.94
2022-09-06T18:27:23.721Z,101260.16
2022-09-06T18:30:14.636Z,101264.50
2022-09-06T18:32:54.962Z,101262.22
2022-09-06T18:35:48.596Z,101268.56
2022-09-06T18:38:35.536Z,101263.25
2022-09-06T18:41:42.591Z,101257.19
2022-09-06T18:44:23.229Z,101262.78
2022-09-06T18:47:14.797Z,101266.13
2022-09-06T18:50:01.787Z,101269.81
2022-09-06T18:52:42.237Z,101266.94
2022-09-06T18:55:28.801Z,101272.97
2022-09-06T18:58:17.802Z,101267.75
2022-09-06T19:00:57.888Z,101262.28
2022-09-06T19:03:45.890Z,101259.06
2022-09-06T19:06:34.808Z,101270.56
2022-09-06T19:09:23.901Z,101267.59
2022-09-06T19:12:03.734Z,101270.25
2022-09-06T19:14:50.901Z,101281.97
2022-09-06T19:17:30.739Z,101266.13
2022-09-06T19:20:15.022Z,101271.28
2022-09-06T19:23:04.738Z,101271.66
2022-09-06T19:25:51.780Z,101267.50
2022-09-06T19:28:33.129Z,101274.75
2022-09-06T19:31:20.820Z,101270.72
2022-09-06T19:34:08.702Z,101264.22
2022-09-06T19:36:57.426Z,101264.66
2022-09-06T19:39:38.623Z,101273.88
2022-09-06T19:42:19.109Z,101263.00
2022-09-06T19:45:05.506Z,101260.31
2022-09-06T19:47:52.551Z,101274.16
2022-09-06T19:50:32.686Z,101268.16
2022-09-06T19:53:19.462Z,101267.13
2022-09-06T19:56:06.467Z,101271.94
2022-09-06T19:58:47.104Z,101264.63
2022-09-06T20:01:33.558Z,101261.94
2022-09-06T20:04:21.495Z,101270.31
2022-09-06T20:07:02.677Z,101268.88
2022-09-06T20:09:52.436Z,101271.84
2022-09-06T20:12:32.769Z,101271.72
2022-09-06T20:15:20.482Z,101272.94
2022-09-06T20:18:00.577Z,101261.09
2022-09-06T20:20:47.456Z,101271.97
2022-09-06T20:23:29.217Z,101270.69
2022-09-06T20:26:20.482Z,101272.59
2022-09-06T20:29:09.441Z,101277.09
2022-09-06T20:31:56.527Z,101270.69
2022-09-06T20:34:36.555Z,101266.16
2022-09-06T20:37:23.480Z,101278.19
2022-09-06T20:40:04.775Z,101269.59
2022-09-06T20:42:52.462Z,101278.25
2022-09-06T20:45:32.563Z,101269.19
2022-09-06T20:48:19.438Z,101277.09
2022-09-06T20:51:04.975Z,101279.34
2022-09-06T20:53:58.419Z,101269.34
2022-09-06T20:56:48.438Z,101265.41
2022-09-06T20:59:35.813Z,101266.78
2022-09-06T21:02:15.455Z,101265.41
2022-09-06T21:05:02.503Z,101259.56
2022-09-06T21:07:42.423Z,101262.38
2022-09-06T21:10:29.402Z,101263.28
2022-09-06T21:13:17.387Z,101257.25
2022-09-06T21:16:04.503Z,101244.44
2022-09-06T21:18:44.569Z,101244.56
2022-09-06T21:21:32.421Z,101263.38
2022-09-06T21:24:21.493Z,101245.53
2022-09-06T21:27:01.829Z,101243.41
2022-09-06T21:29:48.395Z,101250.63
2022-09-06T21:32:28.795Z,101240.72
2022-09-06T21:35:15.433Z,101248.38
2022-09-06T21:37:55.769Z,101245.97
2022-09-06T21:40:42.388Z,101247.34
2022-09-06T21:43:22.964Z,101246.31
2022-09-06T21:46:09.418Z,101249.09
2022-09-06T21:48:51.842Z,101236.31
2022-09-06T21:51:40.359Z,101243.84
2022-09-06T21:54:27.369Z,101239.09
2022-09-06T21:57:07.500Z,101250.44
2022-09-06T21:59:54.316Z,101243.13
2022-09-06T22:02:45.356Z,101244.19
2022-09-06T22:05:32.334Z,101242.16
2022-09-06T22:08:12.448Z,101247.19
2022-09-06T22:10:59.331Z,101241.94
2022-09-06T22:13:46.349Z,101243.59
2022-09-06T22:16:28.065Z,101244.94
2022-09-06T22:19:15.338Z,101234.50
2022-09-06T22:21:55.720Z,101248.19
2022-09-06T22:24:42.307Z,101241.78
2022-09-06T22:27:29.461Z,101237.47
2022-09-06T22:30:10.308Z,101234.88
2022-09-06T22:32:50.734Z,101240.94
2022-09-06T22:35:37.321Z,101238.25
2022-09-06T22:38:24.385Z,101247.41
2022-09-06T22:41:11.327Z,101248.09
2022-09-06T22:43:57.330Z,101243.44
2022-09-06T22:46:44.411Z,101241.09
2022-09-06T22:49:31.322Z,101252.41
2022-09-06T22:52:19.294Z,101250.66
2022-09-06T22:55:06.455Z,101247.72
2022-09-06T22:57:46.303Z,101239.38
2022-09-06T23:00:27.567Z,101247.72
2022-09-06T23:03:14.299Z,101245.06
2022-09-06T23:06:00.637Z,101242.41
2022-09-06T23:08:49.287Z,101241.59
2022-09-06T23:11:39.259Z,101247.34
2022-09-06T23:14:19.362Z,101241.28
2022-09-06T23:17:06.255Z,101235.59
2022-09-06T23:19:46.519Z,101233.69
2022-09-06T23:22:33.267Z,101235.47
2022-09-06T23:25:21.289Z,101243.34
2022-09-06T23:28:08.375Z,101240.97
2022-09-06T23:30:48.269Z,101232.94
2022-09-06T23:33:36.242Z,101228.19
2022-09-06T23:36:26.248Z,101229.69
2022-09-06T23:39:15.238Z,101229.34
2022-09-06T23:41:55.363Z,101222.84
2022-09-06T23:44:42.270Z,101231.66
2022-09-06T23:47:29.215Z,101225.28
2022-09-06T23:50:09.954Z,101227.25
2022-09-06T23:52:57.216Z,101222.69
2022-09-06T23:55:37.966Z,101214.56
2022-09-06T23:58:25.340Z,101219.31
